Munising, MI (49862)

12:41 PM EST on November 27, 2014 (GMT -0500)
RAWS MUNISING MI US | Change Station
CLOSE
Current Station
Personal Weather Station
Location: Munising, MI
Elevation: 771 ft
Nearby Weather Stations
Active Advisory: Lake Effect Snow Advisory

Elev 771 ft 46.43 °N, 86.62 °W | Updated 42 minutes ago

Overcast
Overcast
17 °F
Feels Like 17 °F
N
0
Wind Variable Wind from North
Gusts 0.0 mph

Today
High -- | Low -- °F
--% Chance of Precip.
Yesterday
High -- | Low -- °F
Precip. -- in
8:04 AM 5:03 PM
Waxing Crescent, 31% visible
Pressure 30.27 in
Visibility 10.0 miles
Clouds Scattered Clouds 3000 ft
Windchill 17 °F
Dew Point 7 °F
Humidity 64%
Rainfall -999.00 in
Snow Depth Not available.
UV 1 out of 12
Pollen .10 out of 12
Air Quality Not available.
Flu Activity Not available.
METAR KSAW 271650Z 33015G20KT 10SM SCT030 M11/M16 A3027

More Conditions Fewer Conditions

Pressure 30.27 in
Visibility 10.0 miles
Clouds Scattered Clouds 3000 ft
Windchill 17 °F
Dew Point 7 °F
Humidity 64%
Rainfall -999.00 in
Snow Depth Not available.
UV 1 out of 12
Pollen .10 out of 12
Air Quality Not available.
Flu Activity Not available.
METAR KSAW 271650Z 33015G20KT 10SM SCT030 M11/M16 A3027

More Conditions Fewer Conditions

10-Day Weather Forecast

Almanac

Astronomy

Nov. 27, 2014 Rise Set
Actual Time
Civil Twilight
Nautical Twilight
Astronomical Twilight
Moon
Length of Visible Light
Length of Day
Tomorrow will be .
, % of the Moon is Illuminated

Today's Extremes

State Highs State Lows

Community

WunderPhotos

Upload Photos

1,774,061 photos uploaded!

WunderBlogs® & News

Nearby

Air Quality

  Air Quality AQ Index Pollutant
Not available.

Snow Depth

Station Depth Elevation

Earthquake Activity

City Distance Mag. Time & Date
Minimum magnitude displayed is 2.5.

Coastal Water Temperatures

Place Temperature

Nearby Weather Stations